Opal, Wyoming
Current Conditions -  °F | °C
As of 8:35 PM on Saturday 25 Oct 2014 (Local Time) from KEMM Reporting Station
Clear Clear  
Wind Chill: 50°   Ceiling: Unl
Heat Index: 50°   Visibility: 10mi
Dew Point: 19°   Wind: 6mph
Humidity: 30%   Direction: 210°SSW
Pressure: 30.04"   Gusts: NA
Location:  41.77°N, 110.33°W
Report Text: KEMM 260235Z AUTO 21005KT 10SM CLR 10/M07 A3004 RMK AO2
Loading
Personal Weather Stations






























Interactive Weather Map
Tropical Storm Tracking
New forecast layout! Learn more

10-Day Weather Forecast

Advertisements
Track Severe Weather on mobile